Time;durP1;ratioP1;P1;durP2;ratioP2;P2;SDS_P1;SDS_P2;PMS_P1;PMS_P2;Temp;Humidity;BMP_temperature;BMP_pressure;BME280_temperature;BME280_humidity;BME280_pressure;Samples;Min_cycle;Max_cycle;Signal;HPM_P1;HPM_P2
2022/01/01 00:00:10;;;;;;;4.28;3.67;;;22.30;41.60;;;;;;5113560;28;20410;-67
2022/01/01 00:02:35;;;;;;;4.20;3.45;;;22.30;41.60;;;;;;5114267;28;20390;-67
2022/01/01 00:05:02;;;;;;;4.80;3.70;;;22.40;41.60;;;;;;5113013;28;20885;-67
2022/01/01 00:07:28;;;;;;;5.00;3.85;;;22.30;41.50;;;;;;5113163;28;20434;-67
2022/01/01 00:09:53;;;;;;;5.33;4.17;;;22.40;41.70;;;;;;5114101;28;20416;-67
2022/01/01 00:12:19;;;;;;;5.90;4.03;;;22.40;41.60;;;;;;5113019;28;20412;-67
2022/01/01 00:14:45;;;;;;;5.17;3.87;;;22.40;41.50;;;;;;5113788;28;20965;-67
2022/01/01 00:17:10;;;;;;;5.93;4.20;;;22.50;41.50;;;;;;5113931;27;20410;-67
2022/01/01 00:19:36;;;;;;;5.78;4.03;;;22.50;41.30;;;;;;5114018;28;20711;-67
2022/01/01 00:22:02;;;;;;;5.80;3.90;;;22.50;41.30;;;;;;5113987;28;20433;-67
2022/01/01 00:24:28;;;;;;;5.68;4.03;;;22.50;41.20;;;;;;5114018;28;20430;-67
2022/01/01 00:26:54;;;;;;;5.88;4.45;;;22.50;41.20;;;;;;5113822;28;20392;-67
2022/01/01 00:29:20;;;;;;;5.88;4.70;;;22.50;41.10;;;;;;5112547;28;20917;-67
2022/01/01 00:31:47;;;;;;;6.50;4.30;;;22.50;41.10;;;;;;5113753;28;20376;-66
2022/01/01 00:34:13;;;;;;;5.88;4.75;;;22.50;41.10;;;;;;5113804;28;20376;-67
2022/01/01 00:36:39;;;;;;;5.27;4.50;;;22.50;41.00;;;;;;5113716;28;20744;-67
2022/01/01 00:39:05;;;;;;;6.22;4.85;;;22.60;41.10;;;;;;5113716;28;20881;-67
2022/01/01 00:41:32;;;;;;;5.35;4.75;;;22.60;41.00;;;;;;5113719;28;20395;-67
2022/01/01 00:43:58;;;;;;;5.63;4.63;;;22.50;41.00;;;;;;5113615;28;20372;-67
2022/01/01 00:46:24;;;;;;;5.57;4.70;;;22.60;40.90;;;;;;5113576;28;20511;-67
2022/01/01 00:48:53;;;;;;;5.82;4.85;;;22.60;40.90;;;;;;5112157;28;20384;-67
2022/01/01 00:51:20;;;;;;;5.95;4.85;;;22.60;40.90;;;;;;5113459;28;20895;-67
2022/01/01 00:53:46;;;;;;;5.55;4.80;;;22.60;40.80;;;;;;5112149;28;20388;-67
2022/01/01 00:56:11;;;;;;;6.00;5.00;;;22.60;40.80;;;;;;5113386;28;20800;-67
2022/01/01 00:58:37;;;;;;;6.97;5.68;;;22.60;40.80;;;;;;5113225;28;20476;-67
2022/01/01 01:01:03;;;;;;;6.57;5.53;;;22.60;40.80;;;;;;5113347;28;20433;-67
2022/01/01 01:03:29;;;;;;;6.35;5.32;;;22.60;40.70;;;;;;5113380;27;20446;-67
2022/01/01 01:05:54;;;;;;;6.30;5.23;;;22.60;40.70;;;;;;5113209;28;20390;-67
2022/01/01 01:08:20;;;;;;;6.22;4.95;;;22.60;40.70;;;;;;5113289;28;20416;-67
2022/01/01 01:10:47;;;;;;;6.20;5.13;;;22.60;40.70;;;;;;5112137;28;20417;-67
2022/01/01 01:13:15;;;;;;;5.95;5.28;;;22.60;40.60;;;;;;5113227;27;20387;-67
2022/01/01 01:15:43;;;;;;;6.30;5.47;;;22.60;40.60;;;;;;5112985;28;20428;-66
2022/01/01 01:18:09;;;;;;;6.20;5.50;;;22.60;40.60;;;;;;5113193;28;20372;-68
2022/01/01 01:20:35;;;;;;;6.80;5.50;;;22.60;40.60;;;;;;5112896;28;20380;-67
2022/01/01 01:23:01;;;;;;;6.25;5.65;;;22.60;40.50;;;;;;5112970;28;20783;-67
2022/01/01 01:25:37;;;;;;;6.30;5.45;;;22.60;40.50;;;;;;5112916;28;20933;-67
2022/01/01 01:28:07;;;;;;;6.20;5.60;;;22.60;40.50;;;;;;5112872;28;20380;-67
2022/01/01 01:30:34;;;;;;;6.53;5.50;;;22.60;40.40;;;;;;5112353;28;20923;-68
2022/01/01 01:33:00;;;;;;;6.53;5.83;;;22.60;40.40;;;;;;5112290;28;20465;-67
2022/01/01 01:35:25;;;;;;;6.10;5.50;;;22.60;40.40;;;;;;5111505;28;20759;-67
2022/01/01 01:37:51;;;;;;;6.57;5.90;;;22.60;40.30;;;;;;5112494;28;20380;-67
2022/01/01 01:40:16;;;;;;;6.18;5.57;;;22.60;40.40;;;;;;5112716;28;20902;-67
2022/01/01 01:42:44;;;;;;;7.07;5.90;;;22.60;40.30;;;;;;5112646;28;20396;-67
2022/01/01 01:45:15;;;;;;;6.30;5.50;;;22.60;40.30;;;;;;5112512;27;20950;-67
2022/01/01 01:47:41;;;;;;;6.37;5.77;;;22.60;40.20;;;;;;5110856;28;20745;-67
2022/01/01 01:50:10;;;;;;;6.43;5.55;;;22.70;40.30;;;;;;5112475;28;20416;-66
2022/01/01 01:52:37;;;;;;;6.22;5.63;;;22.60;40.20;;;;;;5112467;28;20385;-67
2022/01/01 01:55:08;;;;;;;6.28;5.50;;;22.60;40.20;;;;;;5112473;28;20380;-67
2022/01/01 01:57:39;;;;;;;6.65;5.60;;;22.60;40.20;;;;;;5112516;28;20369;-67
2022/01/01 02:00:18;;;;;;;6.53;5.43;;;22.60;40.10;;;;;;5112005;28;20418;-67
2022/01/01 02:02:44;;;;;;;6.40;5.50;;;22.60;40.10;;;;;;5111095;28;20466;-67
2022/01/01 02:05:09;;;;;;;6.72;6.00;;;22.60;40.10;;;;;;5112345;28;20876;-67
2022/01/01 02:07:36;;;;;;;6.17;5.50;;;22.60;40.10;;;;;;5111109;28;20387;-67
2022/01/01 02:10:03;;;;;;;7.95;5.95;;;22.60;40.10;;;;;;5112141;28;20415;-67
2022/01/01 02:12:29;;;;;;;5.97;5.22;;;22.60;40.10;;;;;;5112107;28;20463;-67
2022/01/01 02:17:24;;;;;;;6.43;5.68;;;22.60;40.00;;;;;;5112177;28;20404;-67
2022/01/01 02:19:55;;;;;;;6.35;5.65;;;22.60;39.90;;;;;;5112228;28;20388;-67
2022/01/01 02:22:22;;;;;;;6.50;5.80;;;22.60;39.90;;;;;;5113279;28;20882;-68
2022/01/01 02:24:48;;;;;;;6.53;5.68;;;22.60;39.90;;;;;;5116253;28;20389;-67
2022/01/01 02:27:14;;;;;;;6.68;5.97;;;22.60;39.90;;;;;;5116317;28;20491;-66
2022/01/01 02:29:40;;;;;;;6.50;5.80;;;22.60;40.00;;;;;;5116043;28;20995;-67
2022/01/01 02:32:11;;;;;;;6.35;5.43;;;22.60;39.90;;;;;;5116102;28;20474;-67
2022/01/01 02:34:37;;;;;;;6.20;5.60;;;22.60;39.90;;;;;;5114951;28;20376;-68
2022/01/01 02:37:03;;;;;;;6.90;5.70;;;22.60;39.90;;;;;;5116179;28;20734;-68
2022/01/01 02:39:29;;;;;;;5.93;5.28;;;22.60;39.80;;;;;;5116218;28;20387;-68
2022/01/01 02:41:56;;;;;;;6.00;5.40;;;22.60;39.80;;;;;;5115956;28;20389;-67
2022/01/01 02:44:24;;;;;;;6.13;5.53;;;22.60;39.80;;;;;;5116021;28;20388;-67
2022/01/01 02:46:55;;;;;;;6.18;5.57;;;22.60;39.80;;;;;;5115927;28;20384;-67
2022/01/01 02:49:21;;;;;;;6.45;5.75;;;22.60;39.80;;;;;;5115277;28;20412;-67
2022/01/01 02:51:47;;;;;;;6.40;5.70;;;22.60;39.70;;;;;;5115772;28;20380;-67
2022/01/01 02:54:13;;;;;;;6.70;5.93;;;22.60;39.70;;;;;;5116504;28;20873;-67
2022/01/01 02:56:38;;;;;;;6.85;5.63;;;22.50;39.70;;;;;;5115965;28;20377;-67
2022/01/01 02:59:04;;;;;;;6.10;5.50;;;22.60;39.70;;;;;;5115498;28;20404;-67
2022/01/01 03:01:30;;;;;;;6.10;5.50;;;22.50;39.60;;;;;;5115296;28;20528;-67
2022/01/01 03:03:55;;;;;;;6.90;6.00;;;22.50;39.60;;;;;;5115144;28;20396;-67
2022/01/01 03:06:21;;;;;;;5.90;5.30;;;22.60;39.70;;;;;;5115921;28;20424;-67
2022/01/01 03:08:48;;;;;;;6.00;5.40;;;22.50;39.60;;;;;;5115525;28;20869;-67
2022/01/01 03:11:15;;;;;;;6.63;5.60;;;22.50;39.60;;;;;;5115548;28;20441;-67
2022/01/01 03:13:40;;;;;;;6.18;5.40;;;22.50;39.60;;;;;;5115228;28;20446;-67
2022/01/01 03:16:06;;;;;;;6.13;5.53;;;22.50;39.60;;;;;;5115426;28;20391;-67
2022/01/01 03:18:32;;;;;;;6.63;5.43;;;22.50;39.50;;;;;;5115332;27;20380;-68
2022/01/01 03:20:57;;;;;;;6.43;5.72;;;22.50;39.50;;;;;;5115250;28;20373;-67
2022/01/01 03:23:23;;;;;;;5.93;5.20;;;22.50;39.50;;;;;;5115338;28;20388;-67
2022/01/01 03:25:48;;;;;;;6.27;5.57;;;22.50;39.50;;;;;;5115005;28;20946;-67
2022/01/01 03:28:14;;;;;;;7.03;5.50;;;22.60;39.50;;;;;;5115818;28;20463;-67
2022/01/01 03:30:40;;;;;;;6.10;5.40;;;22.50;39.50;;;;;;5114014;28;20423;-67
2022/01/01 03:33:05;;;;;;;6.20;5.60;;;22.50;39.50;;;;;;5114104;28;20462;-67
2022/01/01 03:35:31;;;;;;;7.10;5.43;;;22.50;39.40;;;;;;5115103;27;20447;-67
2022/01/01 03:37:57;;;;;;;6.50;5.37;;;22.50;39.40;;;;;;5114772;28;20936;-68
2022/01/01 03:40:22;;;;;;;6.63;5.28;;;22.50;39.40;;;;;;5114969;28;20385;-68
2022/01/01 03:42:48;;;;;;;6.20;5.30;;;22.50;39.40;;;;;;5114688;28;20770;-68
2022/01/01 03:45:13;;;;;;;6.00;5.38;;;22.50;39.40;;;;;;5114751;28;20376;-67
2022/01/01 03:47:39;;;;;;;6.23;5.40;;;22.50;39.50;;;;;;5114692;28;20388;-67
2022/01/01 03:50:05;;;;;;;5.57;4.77;;;22.50;39.40;;;;;;5114740;28;20415;-67
2022/01/01 03:52:31;;;;;;;6.20;5.47;;;22.50;39.40;;;;;;5113411;28;20384;-67
2022/01/01 03:54:56;;;;;;;6.28;5.20;;;22.50;39.40;;;;;;5114691;28;20948;-68
2022/01/01 03:57:22;;;;;;;5.40;4.90;;;22.50;39.40;;;;;;5114580;28;20387;-67
2022/01/01 03:59:48;;;;;;;5.82;5.10;;;22.50;39.30;;;;;;5114294;28;20502;-67
2022/01/01 04:02:14;;;;;;;5.88;5.18;;;22.50;39.30;;;;;;5113000;28;20461;-68
2022/01/01 04:04:40;;;;;;;6.10;4.80;;;22.50;39.30;;;;;;5114309;28;20754;-68
2022/01/01 04:07:07;;;;;;;5.93;5.05;;;22.50;39.30;;;;;;5114317;28;20483;-67
2022/01/01 04:09:33;;;;;;;5.93;5.03;;;22.50;39.30;;;;;;5114215;28;20396;-67
2022/01/01 04:11:59;;;;;;;5.67;4.80;;;22.40;39.20;;;;;;5114310;28;20779;-67
2022/01/01 04:14:24;;;;;;;5.40;4.85;;;22.50;39.30;;;;;;5113005;28;20945;-67
2022/01/01 04:16:52;;;;;;;5.37;4.83;;;22.40;39.20;;;;;;5113915;28;20919;-68
2022/01/01 04:19:17;;;;;;;5.38;4.68;;;22.50;39.30;;;;;;5112324;28;20368;-67
2022/01/01 04:21:43;;;;;;;5.65;4.55;;;22.40;39.20;;;;;;5113711;28;20738;-67
2022/01/01 04:24:09;;;;;;;5.10;4.60;;;22.40;39.20;;;;;;5112620;28;20441;-69
2022/01/01 04:26:34;;;;;;;5.45;4.50;;;22.40;39.20;;;;;;5112408;28;20433;-68
2022/01/01 04:29:00;;;;;;;5.37;4.40;;;22.40;39.20;;;;;;5113824;28;21074;-68
2022/01/01 04:31:26;;;;;;;5.93;4.47;;;22.40;39.20;;;;;;5113669;28;20392;-67
2022/01/01 04:33:51;;;;;;;5.23;4.60;;;22.40;39.20;;;;;;5113729;28;20448;-67
2022/01/01 04:36:17;;;;;;;5.23;4.40;;;22.40;39.20;;;;;;5113984;27;20407;-67
2022/01/01 04:38:44;;;;;;;5.30;4.50;;;22.40;39.10;;;;;;5113657;28;20399;-67
2022/01/01 04:41:15;;;;;;;4.70;4.20;;;22.40;39.10;;;;;;5113580;28;20750;-67
2022/01/01 04:43:43;;;;;;;4.63;4.13;;;22.40;39.10;;;;;;5113415;28;20391;-67
2022/01/01 04:46:10;;;;;;;4.78;4.28;;;22.40;39.10;;;;;;5113540;28;20388;-67
2022/01/01 04:48:37;;;;;;;4.57;3.90;;;22.40;39.10;;;;;;5113423;28;20999;-68
2022/01/01 04:51:07;;;;;;;5.10;4.18;;;22.40;39.10;;;;;;5113357;28;20448;-67
2022/01/01 04:53:34;;;;;;;4.82;4.10;;;22.40;39.10;;;;;;5113408;28;20376;-67
2022/01/01 04:56:04;;;;;;;4.40;3.90;;;22.40;39.10;;;;;;5113466;28;20380;-69
2022/01/01 04:58:29;;;;;;;4.70;4.20;;;22.40;39.10;;;;;;5111918;28;20411;-69
2022/01/01 05:00:55;;;;;;;4.57;3.95;;;22.40;39.10;;;;;;5113303;28;20376;-67
2022/01/01 05:03:21;;;;;;;4.93;4.30;;;22.30;39.10;;;;;;5111654;28;20399;-67
2022/01/01 05:05:46;;;;;;;4.80;3.90;;;22.40;39.10;;;;;;5113257;28;20377;-67
2022/01/01 05:08:12;;;;;;;4.38;3.95;;;22.30;39.00;;;;;;5113169;28;20463;-67
2022/01/01 05:10:37;;;;;;;4.33;3.93;;;22.40;39.10;;;;;;5112956;28;20889;-67
2022/01/01 05:13:03;;;;;;;4.23;3.83;;;22.40;39.00;;;;;;5113024;28;20394;-67
2022/01/01 05:15:29;;;;;;;4.05;3.63;;;22.40;39.00;;;;;;5111803;28;20396;-67
2022/01/01 05:17:55;;;;;;;4.40;3.90;;;22.40;39.10;;;;;;5111703;28;20897;-68
2022/01/01 05:20:21;;;;;;;4.60;3.93;;;22.40;39.00;;;;;;5112823;28;20486;-68
2022/01/01 05:22:47;;;;;;;4.40;3.83;;;22.40;39.00;;;;;;5111516;28;20727;-66
2022/01/01 05:25:12;;;;;;;4.22;3.67;;;22.30;39.00;;;;;;5112833;28;20513;-67
2022/01/01 05:27:38;;;;;;;4.33;3.87;;;22.40;39.00;;;;;;5112814;28;20742;-66
2022/01/01 05:30:05;;;;;;;4.00;3.60;;;22.30;38.90;;;;;;5112631;27;20451;-67
2022/01/01 05:32:31;;;;;;;3.83;3.30;;;22.30;38.90;;;;;;5112404;28;20388;-67
2022/01/01 05:34:57;;;;;;;4.67;3.70;;;22.30;38.90;;;;;;5112040;28;20389;-68
2022/01/01 05:37:22;;;;;;;3.95;3.55;;;22.40;39.00;;;;;;5112923;28;20383;-67
2022/01/01 05:39:48;;;;;;;3.93;3.53;;;22.30;38.90;;;;;;5112528;28;20444;-67
2022/01/01 05:42:14;;;;;;;4.10;3.70;;;22.30;38.90;;;;;;5112632;28;20415;-66
2022/01/01 05:44:40;;;;;;;4.03;3.37;;;22.30;38.90;;;;;;5112412;28;20922;-67
2022/01/01 05:47:06;;;;;;;4.20;3.60;;;22.30;38.90;;;;;;5112541;27;20388;-67
2022/01/01 05:49:31;;;;;;;3.73;3.37;;;22.30;38.90;;;;;;5111812;28;20423;-67
2022/01/01 05:51:57;;;;;;;3.90;3.50;;;22.30;38.90;;;;;;5112105;28;20884;-67
2022/01/01 05:54:23;;;;;;;4.17;3.50;;;22.30;38.90;;;;;;5112249;28;20487;-67
2022/01/01 05:56:48;;;;;;;3.75;3.35;;;22.30;38.90;;;;;;5111865;28;20467;-67
2022/01/01 05:59:14;;;;;;;3.90;3.50;;;22.30;38.80;;;;;;5112200;28;20404;-67
2022/01/01 06:01:40;;;;;;;3.88;3.47;;;22.30;38.80;;;;;;5112158;27;20380;-68
2022/01/01 06:04:05;;;;;;;3.33;2.93;;;22.30;38.80;;;;;;5111780;28;20381;-68
2022/01/01 06:06:31;;;;;;;3.72;3.30;;;22.30;38.90;;;;;;5112305;28;20420;-67
2022/01/01 06:08:57;;;;;;;3.70;3.30;;;22.30;38.90;;;;;;5110679;28;21033;-67
2022/01/01 06:11:22;;;;;;;3.90;3.50;;;22.30;38.80;;;;;;5112285;28;20411;-67
2022/01/01 06:13:48;;;;;;;3.37;2.93;;;22.30;38.80;;;;;;5112258;28;20403;-67
2022/01/01 06:16:14;;;;;;;3.67;3.20;;;22.30;38.80;;;;;;5110901;28;20483;-67
2022/01/01 06:18:39;;;;;;;3.40;3.10;;;22.30;38.80;;;;;;5110807;28;20412;-67
2022/01/01 06:21:05;;;;;;;3.58;3.13;;;22.30;38.80;;;;;;5112155;28;20376;-66
2022/01/01 06:23:31;;;;;;;3.58;3.05;;;22.30;38.80;;;;;;5112163;28;20392;-67
2022/01/01 06:25:57;;;;;;;3.33;3.00;;;22.20;38.70;;;;;;5112147;28;20388;-67
2022/01/01 06:28:22;;;;;;;3.33;3.03;;;22.30;38.70;;;;;;5112129;28;20392;-67
2022/01/01 06:30:48;;;;;;;3.55;3.00;;;22.20;38.70;;;;;;5111962;28;20766;-67
2022/01/01 06:33:18;;;;;;;3.35;2.90;;;22.20;38.70;;;;;;5110894;28;20380;-68
2022/01/01 06:35:45;;;;;;;3.13;2.83;;;22.20;38.70;;;;;;5111960;28;20384;-67
2022/01/01 06:38:12;;;;;;;3.70;3.10;;;22.20;38.60;;;;;;5112040;28;20809;-67
2022/01/01 06:40:39;;;;;;;3.17;2.83;;;22.20;38.70;;;;;;5111948;28;20419;-67
2022/01/01 06:43:10;;;;;;;3.40;2.80;;;22.20;38.60;;;;;;5111958;28;20384;-67
2022/01/01 06:45:36;;;;;;;3.20;2.85;;;22.20;38.60;;;;;;5111966;28;20380;-67
2022/01/01 06:48:02;;;;;;;3.30;3.00;;;22.30;38.70;;;;;;5111910;28;20383;-68
2022/01/01 06:50:28;;;;;;;3.30;2.80;;;22.30;38.70;;;;;;5111873;28;20789;-67
2022/01/01 06:52:54;;;;;;;3.60;2.80;;;22.20;38.50;;;;;;5111858;28;20387;-67
2022/01/01 06:55:20;;;;;;;3.25;2.70;;;22.20;38.50;;;;;;5111926;28;20384;-67
2022/01/01 06:57:46;;;;;;;3.13;2.65;;;22.20;38.40;;;;;;5111850;28;20861;-67
2022/01/01 07:00:13;;;;;;;3.20;2.53;;;22.20;38.50;;;;;;5111694;28;20537;-67
2022/01/01 07:02:44;;;;;;;3.15;2.78;;;22.20;38.50;;;;;;5111568;28;20388;-67
2022/01/01 07:05:10;;;;;;;2.83;2.53;;;22.20;38.50;;;;;;5111302;28;20398;-67
2022/01/01 07:07:36;;;;;;;2.78;2.40;;;22.20;38.50;;;;;;5111373;28;20376;-67
2022/01/01 07:10:06;;;;;;;2.90;2.60;;;22.20;38.50;;;;;;5114706;28;20423;-67
2022/01/01 07:12:34;;;;;;;3.28;2.85;;;22.20;38.50;;;;;;5115393;28;20441;-67
2022/01/01 07:15:00;;;;;;;3.58;2.67;;;22.20;38.40;;;;;;5115239;28;20964;-67
2022/01/01 07:17:25;;;;;;;3.10;2.70;;;22.20;38.40;;;;;;5113942;28;20487;-67
2022/01/01 07:19:51;;;;;;;2.90;2.60;;;22.20;38.40;;;;;;5115305;28;20396;-66
2022/01/01 07:22:17;;;;;;;2.90;2.60;;;22.20;38.40;;;;;;5115355;28;20445;-67
2022/01/01 07:24:44;;;;;;;3.03;2.63;;;22.20;38.40;;;;;;5115037;28;20391;-66
2022/01/01 07:27:11;;;;;;;2.80;2.50;;;22.20;38.40;;;;;;5115270;28;20529;-67
2022/01/01 07:29:36;;;;;;;3.10;2.53;;;22.20;38.40;;;;;;5115033;28;20400;-66
2022/01/01 07:32:02;;;;;;;3.05;2.70;;;22.20;38.40;;;;;;5115058;28;20887;-68
2022/01/01 07:34:28;;;;;;;4.00;2.60;;;22.20;38.50;;;;;;5115020;28;20377;-68
2022/01/01 07:36:53;;;;;;;4.70;2.70;;;22.20;37.50;;;;;;5114861;28;20389;-67
2022/01/01 07:39:19;;;;;;;3.87;2.80;;;22.20;37.40;;;;;;5115531;28;20388;-66
2022/01/01 07:41:45;;;;;;;4.90;2.70;;;22.20;37.80;;;;;;5115679;28;20403;-68
2022/01/01 07:44:11;;;;;;;5.50;3.38;;;22.20;38.90;;;;;;5113439;28;20916;-66
2022/01/01 07:46:37;;;;;;;4.70;3.65;;;22.20;39.10;;;;;;5115145;28;20393;-67
2022/01/01 07:49:02;;;;;;;4.17;3.47;;;22.20;39.80;;;;;;5114843;28;20516;-68
2022/01/01 07:51:28;;;;;;;4.30;3.05;;;22.20;40.10;;;;;;5115244;28;20472;-68
2022/01/01 07:53:53;;;;;;;4.70;3.30;;;22.20;38.80;;;;;;5114486;28;20404;-69
2022/01/01 07:56:19;;;;;;;4.57;3.30;;;22.20;38.70;;;;;;5114610;28;20384;-68
2022/01/01 07:58:45;;;;;;;4.78;3.35;;;22.20;38.90;;;;;;5112778;28;20411;-69
2022/01/01 08:01:10;;;;;;;5.70;3.43;;;22.20;38.90;;;;;;5114442;27;20395;-67
2022/01/01 08:03:36;;;;;;;5.28;3.40;;;22.20;39.40;;;;;;5112818;28;20419;-69
2022/01/01 08:06:01;;;;;;;4.97;3.27;;;22.20;39.60;;;;;;5114081;28;20392;-68
2022/01/01 08:08:27;;;;;;;5.70;3.13;;;22.30;40.20;;;;;;5114435;28;20388;-69
2022/01/01 08:10:53;;;;;;;5.38;3.30;;;22.20;40.90;;;;;;5114176;28;20424;-68
2022/01/01 08:13:23;;;;;;;5.23;2.97;;;22.30;41.00;;;;;;5113092;28;20420;-69
2022/01/01 08:15:50;;;;;;;5.50;3.30;;;22.30;40.20;;;;;;5112427;28;20400;-69
2022/01/01 08:18:16;;;;;;;3.63;3.00;;;22.30;39.40;;;;;;5114015;28;20381;-69
2022/01/01 08:20:42;;;;;;;5.35;3.60;;;22.30;39.20;;;;;;5112809;28;20392;-68
2022/01/01 08:23:08;;;;;;;5.07;3.20;;;22.30;39.20;;;;;;5113768;28;20445;-68
2022/01/01 08:25:34;;;;;;;4.43;3.13;;;22.30;39.10;;;;;;5114085;28;20398;-69
2022/01/01 08:27:59;;;;;;;5.43;3.25;;;22.40;39.30;;;;;;5113977;28;20385;-68
2022/01/01 08:30:25;;;;;;;6.57;3.28;;;22.40;39.90;;;;;;5113767;28;20503;-68
2022/01/01 08:32:51;;;;;;;7.97;3.20;;;22.40;40.10;;;;;;5113971;28;20445;-68
2022/01/01 08:35:17;;;;;;;5.03;3.00;;;22.40;40.20;;;;;;5113835;28;20381;-69
2022/01/01 08:37:42;;;;;;;3.43;2.87;;;22.40;40.00;;;;;;5113717;28;20387;-69
2022/01/01 08:40:09;;;;;;;5.35;3.00;;;22.40;40.00;;;;;;5113783;28;20475;-69
2022/01/01 08:42:35;;;;;;;4.77;3.00;;;22.40;40.30;;;;;;5113563;28;20384;-68
2022/01/01 08:45:01;;;;;;;3.50;2.97;;;22.40;39.80;;;;;;5113496;28;20388;-69
2022/01/01 08:47:27;;;;;;;5.47;3.00;;;22.40;39.80;;;;;;5113684;28;20380;-69
2022/01/01 08:49:55;;;;;;;4.87;3.10;;;22.40;40.30;;;;;;5113413;28;20446;-68
2022/01/01 08:52:22;;;;;;;4.07;2.90;;;22.50;41.40;;;;;;5113579;28;20478;-68
2022/01/01 08:54:49;;;;;;;4.43;3.05;;;22.50;40.60;;;;;;5113296;28;20412;-68
2022/01/01 08:57:16;;;;;;;4.15;2.90;;;22.50;40.40;;;;;;5113419;28;20399;-68
2022/01/01 08:59:41;;;;;;;5.53;2.83;;;22.60;40.40;;;;;;5106231;28;20412;-68
2022/01/01 09:02:08;;;;;;;3.83;2.90;;;22.70;40.20;;;;;;5088355;28;20379;-68
2022/01/01 09:04:34;;;;;;;4.30;3.00;;;22.70;40.40;;;;;;5093562;28;20859;-68
2022/01/01 09:07:00;;;;;;;4.30;2.92;;;22.80;40.60;;;;;;5097108;28;20394;-68
2022/01/01 09:09:25;;;;;;;5.33;2.80;;;22.70;40.60;;;;;;5084630;28;20402;-67
2022/01/01 09:11:51;;;;;;;5.32;3.13;;;22.70;40.20;;;;;;5101365;28;20392;-69
2022/01/01 09:14:17;;;;;;;3.83;2.93;;;22.80;40.70;;;;;;5113048;28;20448;-68
2022/01/01 09:16:42;;;;;;;4.38;2.83;;;22.80;41.10;;;;;;5112995;28;20464;-67
2022/01/01 09:19:08;;;;;;;7.60;3.10;;;22.80;41.00;;;;;;5111552;28;20410;-67
2022/01/01 09:21:33;;;;;;;4.85;2.75;;;22.80;40.80;;;;;;5112574;28;20908;-68
2022/01/01 09:23:59;;;;;;;4.57;2.85;;;22.80;41.00;;;;;;5112916;28;20372;-67
2022/01/01 09:26:26;;;;;;;5.33;2.93;;;22.80;41.00;;;;;;5112484;28;20440;-67
2022/01/01 09:28:52;;;;;;;7.18;3.13;;;22.90;41.10;;;;;;5112757;28;20384;-67
2022/01/01 09:31:17;;;;;;;6.80;3.37;;;23.00;41.10;;;;;;5111893;28;20510;-69
2022/01/01 09:33:43;;;;;;;6.35;3.10;;;23.00;40.90;;;;;;5112475;28;20934;-67
2022/01/01 09:36:10;;;;;;;5.38;3.28;;;23.10;40.80;;;;;;5112127;28;20388;-67
2022/01/01 09:38:36;;;;;;;5.97;3.15;;;23.20;40.70;;;;;;5112213;28;20429;-67
2022/01/01 09:41:02;;;;;;;5.30;3.15;;;23.30;40.60;;;;;;5112522;28;20473;-68
2022/01/01 09:43:30;;;;;;;5.88;3.10;;;23.30;40.50;;;;;;5111173;28;20401;-68
2022/01/01 09:45:58;;;;;;;4.47;2.77;;;23.40;40.40;;;;;;5110953;28;20501;-69
2022/01/01 09:48:25;;;;;;;5.60;2.95;;;23.50;40.30;;;;;;5112419;28;20388;-69
2022/01/01 09:50:54;;;;;;;4.75;2.63;;;23.50;40.20;;;;;;5111783;28;20517;-67
2022/01/01 09:53:25;;;;;;;4.70;2.90;;;23.60;40.10;;;;;;5110965;28;20873;-68
2022/01/01 09:55:52;;;;;;;6.03;3.10;;;23.60;40.00;;;;;;5112236;28;20803;-68
2022/01/01 09:58:22;;;;;;;4.07;2.72;;;23.70;40.10;;;;;;5111006;28;20396;-67
2022/01/01 10:00:49;;;;;;;4.10;2.60;;;23.80;39.90;;;;;;5110843;28;20388;-68
2022/01/01 10:03:17;;;;;;;5.47;2.70;;;23.80;39.80;;;;;;5111451;28;20404;-67
2022/01/01 10:06:06;;;;;;;3.38;2.63;;;23.80;39.40;;;;;;5111948;28;20389;-67
2022/01/01 10:08:33;;;;;;;3.15;2.38;;;23.90;39.30;;;;;;5112231;28;20377;-67
2022/01/01 10:10:59;;;;;;;3.30;2.60;;;23.90;39.10;;;;;;5111865;28;20404;-67
2022/01/01 10:13:33;;;;;;;4.38;2.72;;;24.00;39.40;;;;;;5112099;28;20376;-69
2022/01/01 10:16:00;;;;;;;3.88;2.70;;;24.00;39.00;;;;;;5112343;28;20384;-68
2022/01/01 10:18:28;;;;;;;4.38;2.50;;;24.00;39.20;;;;;;5112262;28;20421;-68
2022/01/01 10:21:17;;;;;;;3.10;2.30;;;24.10;39.30;;;;;;5112148;28;20895;-67
2022/01/01 10:23:46;;;;;;;3.42;2.53;;;24.20;39.30;;;;;;5110857;28;20392;-67
2022/01/01 10:29:09;;;;;;;3.47;2.37;;;24.20;38.80;;;;;;5112117;28;20467;-69
2022/01/01 10:31:36;;;;;;;3.28;2.30;;;24.30;38.80;;;;;;5112123;28;20431;-67
2022/01/01 10:34:10;;;;;;;2.78;2.30;;;24.30;38.80;;;;;;5112197;28;20472;-68
2022/01/01 10:36:36;;;;;;;3.40;2.50;;;24.40;38.50;;;;;;5112035;28;20441;-67
2022/01/01 10:39:13;;;;;;;2.70;2.20;;;24.40;38.70;;;;;;5110610;28;20385;-67
2022/01/01 10:41:48;;;;;;;2.72;2.03;;;24.50;38.50;;;;;;5110949;28;20475;-66
2022/01/01 10:44:14;;;;;;;2.88;2.10;;;24.60;38.50;;;;;;5115685;28;20368;-67
2022/01/01 10:46:41;;;;;;;2.83;2.15;;;24.60;38.40;;;;;;5114586;28;20396;-67
2022/01/01 10:52:13;;;;;;;2.70;2.10;;;24.70;38.30;;;;;;5053047;28;20956;-67
2022/01/01 10:54:52;;;;;;;2.90;1.90;;;24.70;38.50;;;;;;5105072;28;20384;-66
2022/01/01 10:57:38;;;;;;;2.70;2.20;;;24.80;38.20;;;;;;5115798;28;20384;-67
2022/01/01 11:00:18;;;;;;;5.38;2.10;;;24.80;37.90;;;;;;5114190;28;20510;-69
2022/01/01 11:02:49;;;;;;;5.90;2.30;;;24.90;37.90;;;;;;5113751;28;20751;-70
2022/01/01 11:05:15;;;;;;;3.42;2.13;;;25.00;37.70;;;;;;5114708;28;20716;-71
2022/01/01 11:07:53;;;;;;;2.78;2.00;;;25.10;37.60;;;;;;5114560;28;20909;-69
2022/01/01 11:10:21;;;;;;;3.03;2.10;;;25.10;37.40;;;;;;5114664;28;20396;-69
2022/01/01 11:12:47;;;;;;;4.65;2.30;;;25.20;37.40;;;;;;5113795;28;20742;-69
2022/01/01 11:15:13;;;;;;;3.10;2.10;;;25.20;37.30;;;;;;5114716;27;20881;-69
2022/01/01 11:17:41;;;;;;;3.13;2.08;;;25.30;37.50;;;;;;5113312;28;20418;-69
2022/01/01 11:20:08;;;;;;;4.60;2.20;;;25.30;37.30;;;;;;5114653;28;20396;-69
2022/01/01 11:22:34;;;;;;;2.97;2.05;;;25.40;37.20;;;;;;5113208;28;20476;-68
2022/01/01 11:25:00;;;;;;;3.20;2.17;;;25.50;37.20;;;;;;5114454;28;20414;-68
2022/01/01 11:27:27;;;;;;;3.33;1.95;;;25.60;37.10;;;;;;5114748;28;20392;-70
2022/01/01 11:29:54;;;;;;;3.85;2.00;;;25.60;37.30;;;;;;5114901;28;20412;-69
2022/01/01 11:32:41;;;;;;;4.95;2.50;;;25.70;37.60;;;;;;5113713;28;20403;-69
2022/01/01 11:35:31;;;;;;;6.68;2.60;;;25.80;37.60;;;;;;5112931;28;20381;-68
2022/01/01 11:38:06;;;;;;;5.10;2.70;;;25.90;38.40;;;;;;5103498;28;20372;-69
2022/01/01 11:40:58;;;;;;;4.45;2.60;;;25.90;38.20;;;;;;5113478;28;20450;-68
2022/01/01 11:43:59;;;;;;;4.90;2.50;;;26.00;38.70;;;;;;5114019;28;20794;-69
2022/01/01 11:46:26;;;;;;;5.25;2.33;;;26.10;39.10;;;;;;5051945;28;20949;-67
2022/01/01 11:49:03;;;;;;;3.72;2.10;;;26.20;38.90;;;;;;5103051;28;20400;-69
2022/01/01 11:51:48;;;;;;;5.57;2.30;;;26.30;38.40;;;;;;5113312;28;20447;-69
2022/01/01 11:54:30;;;;;;;5.82;2.72;;;26.30;38.40;;;;;;5112403;28;20396;-68
2022/01/01 11:57:00;;;;;;;6.00;2.53;;;26.40;39.00;;;;;;5110172;28;20504;-67
2022/01/01 11:59:38;;;;;;;9.32;3.42;;;26.50;38.10;;;;;;5110665;28;20415;-66
2022/01/01 12:02:05;;;;;;;8.23;3.10;;;26.60;38.40;;;;;;5112420;28;20439;-67
2022/01/01 12:04:45;;;;;;;10.38;3.00;;;26.70;38.60;;;;;;5111343;28;20479;-67
2022/01/01 12:07:17;;;;;;;9.68;3.40;;;26.80;38.50;;;;;;5108493;28;20424;-66
2022/01/01 12:10:01;;;;;;;11.30;3.20;;;26.90;38.20;;;;;;5112109;28;20403;-67
2022/01/01 12:12:53;;;;;;;10.02;3.20;;;27.00;39.00;;;;;;5112772;28;20377;-68
2022/01/01 12:15:24;;;;;;;11.98;3.30;;;27.00;39.00;;;;;;5112608;28;20384;-69
2022/01/01 12:18:00;;;;;;;7.82;2.85;;;27.10;39.40;;;;;;5112487;28;20403;-67
2022/01/01 12:20:33;;;;;;;8.93;3.00;;;27.20;39.30;;;;;;5113247;28;20384;-68
2022/01/01 12:23:01;;;;;;;6.38;2.78;;;27.00;39.20;;;;;;5110873;28;20388;-67
2022/01/01 12:25:29;;;;;;;6.70;2.83;;;26.80;38.80;;;;;;5110971;28;20704;-68
2022/01/01 12:27:58;;;;;;;6.75;2.50;;;26.60;39.20;;;;;;5112002;28;20885;-68
2022/01/01 12:30:36;;;;;;;6.93;2.63;;;26.40;39.00;;;;;;5107255;28;20420;-67
2022/01/01 12:33:02;;;;;;;6.00;2.30;;;26.20;38.80;;;;;;5110603;28;20856;-67
2022/01/01 12:35:49;;;;;;;5.20;2.40;;;26.10;38.70;;;;;;5111830;28;20400;-70
2022/01/01 12:38:17;;;;;;;5.40;2.40;;;26.00;38.90;;;;;;5110512;28;21311;-67
2022/01/01 12:40:57;;;;;;;7.18;2.70;;;25.80;38.80;;;;;;5111597;27;20384;-68
2022/01/01 12:43:24;;;;;;;4.43;2.25;;;25.80;38.70;;;;;;5107888;28;20380;-67
2022/01/01 12:45:54;;;;;;;4.93;2.30;;;25.70;38.70;;;;;;5109102;28;20394;-67
2022/01/01 12:48:32;;;;;;;4.07;2.40;;;25.60;38.50;;;;;;5112316;28;20376;-67
2022/01/01 12:51:00;;;;;;;5.88;2.40;;;25.50;38.50;;;;;;5112134;28;20416;-67
2022/01/01 12:53:28;;;;;;;5.97;2.30;;;25.50;38.60;;;;;;5110816;28;20391;-67
2022/01/01 12:56:05;;;;;;;3.95;2.10;;;25.40;38.70;;;;;;5112180;28;20396;-67